sensor_id;sensor_type;location;lat;lon;timestamp;pressure;altitude;pressure_sealevel;temperature;humidity
41706;BME280;27385;51.096;17.190;2023-05-21T00:01:21;100779.40;;;14.14;86.76
41706;BME280;27385;51.096;17.190;2023-05-21T00:03:52;100775.79;;;14.12;86.93
41706;BME280;27385;51.096;17.190;2023-05-21T00:06:23;100777.04;;;14.10;86.83
41706;BME280;27385;51.096;17.190;2023-05-21T00:08:53;100777.01;;;14.08;86.88
41706;BME280;27385;51.096;17.190;2023-05-21T00:11:25;100774.75;;;14.06;87.23
41706;BME280;27385;51.096;17.190;2023-05-21T00:13:55;100773.35;;;14.05;87.18
41706;BME280;27385;51.096;17.190;2023-05-21T00:16:26;100771.71;;;14.05;87.46
41706;BME280;27385;51.096;17.190;2023-05-21T00:18:57;100775.80;;;14.05;87.59
41706;BME280;27385;51.096;17.190;2023-05-21T00:21:28;100770.89;;;14.05;87.71
41706;BME280;27385;51.096;17.190;2023-05-21T00:24:00;100769.40;;;14.03;87.78
41706;BME280;27385;51.096;17.190;2023-05-21T00:26:30;100768.92;;;14.02;87.78
41706;BME280;27385;51.096;17.190;2023-05-21T00:29:01;100761.60;;;14.01;87.59
41706;BME280;27385;51.096;17.190;2023-05-21T00:31:32;100762.79;;;13.98;87.41
41706;BME280;27385;51.096;17.190;2023-05-21T00:34:03;100761.64;;;13.96;87.56
41706;BME280;27385;51.096;17.190;2023-05-21T00:36:34;100763.90;;;13.94;87.54
41706;BME280;27385;51.096;17.190;2023-05-21T00:39:05;100756.23;;;13.93;87.53
41706;BME280;27385;51.096;17.190;2023-05-21T00:41:37;100756.65;;;13.90;87.40
41706;BME280;27385;51.096;17.190;2023-05-21T00:44:09;100756.70;;;13.89;87.85
41706;BME280;27385;51.096;17.190;2023-05-21T00:46:42;100758.65;;;13.87;87.70
41706;BME280;27385;51.096;17.190;2023-05-21T00:49:13;100763.40;;;13.87;87.62
41706;BME280;27385;51.096;17.190;2023-05-21T00:51:44;100763.20;;;13.86;87.72
41706;BME280;27385;51.096;17.190;2023-05-21T00:54:16;100768.51;;;13.84;87.91
41706;BME280;27385;51.096;17.190;2023-05-21T00:57:08;100764.52;;;13.82;88.03
41706;BME280;27385;51.096;17.190;2023-05-21T00:59:39;100770.89;;;13.79;87.83
41706;BME280;27385;51.096;17.190;2023-05-21T01:02:10;100763.88;;;13.77;87.88
41706;BME280;27385;51.096;17.190;2023-05-21T01:04:43;100762.66;;;13.74;88.04
41706;BME280;27385;51.096;17.190;2023-05-21T01:07:15;100761.32;;;13.72;88.04
41706;BME280;27385;51.096;17.190;2023-05-21T01:09:46;100759.58;;;13.72;87.92
41706;BME280;27385;51.096;17.190;2023-05-21T01:12:18;100760.41;;;13.70;87.99
41706;BME280;27385;51.096;17.190;2023-05-21T01:14:50;100754.95;;;13.66;87.90
41706;BME280;27385;51.096;17.190;2023-05-21T01:17:21;100752.36;;;13.61;87.73
41706;BME280;27385;51.096;17.190;2023-05-21T01:19:53;100747.30;;;13.56;87.84
41706;BME280;27385;51.096;17.190;2023-05-21T01:22:27;100746.33;;;13.49;87.65
41706;BME280;27385;51.096;17.190;2023-05-21T01:25:00;100746.08;;;13.43;87.59
41706;BME280;27385;51.096;17.190;2023-05-21T01:27:31;100746.16;;;13.39;87.44
41706;BME280;27385;51.096;17.190;2023-05-21T01:30:03;100742.08;;;13.32;87.53
41706;BME280;27385;51.096;17.190;2023-05-21T01:32:40;100743.03;;;13.25;87.49
41706;BME280;27385;51.096;17.190;2023-05-21T01:35:16;100741.77;;;13.19;87.42
41706;BME280;27385;51.096;17.190;2023-05-21T01:37:54;100740.03;;;13.13;87.41
41706;BME280;27385;51.096;17.190;2023-05-21T01:40:33;100736.64;;;13.08;87.48
41706;BME280;27385;51.096;17.190;2023-05-21T01:43:08;100735.29;;;13.01;87.35
41706;BME280;27385;51.096;17.190;2023-05-21T01:45:42;100732.05;;;12.97;87.34
41706;BME280;27385;51.096;17.190;2023-05-21T01:48:14;100737.55;;;12.96;87.65
41706;BME280;27385;51.096;17.190;2023-05-21T01:50:47;100735.92;;;12.94;87.46
41706;BME280;27385;51.096;17.190;2023-05-21T01:53:18;100733.00;;;12.90;87.42
41706;BME280;27385;51.096;17.190;2023-05-21T01:55:49;100733.23;;;12.86;87.48
41706;BME280;27385;51.096;17.190;2023-05-21T01:58:20;100734.31;;;12.81;87.48
41706;BME280;27385;51.096;17.190;2023-05-21T02:00:52;100732.64;;;12.75;87.52
41706;BME280;27385;51.096;17.190;2023-05-21T02:03:26;100734.75;;;12.68;87.43
41706;BME280;27385;51.096;17.190;2023-05-21T02:06:00;100728.63;;;12.62;87.63
41706;BME280;27385;51.096;17.190;2023-05-21T02:08:31;100725.58;;;12.58;87.65
41706;BME280;27385;51.096;17.190;2023-05-21T02:11:02;100725.59;;;12.56;87.59
41706;BME280;27385;51.096;17.190;2023-05-21T02:13:32;100725.98;;;12.55;87.53
41706;BME280;27385;51.096;17.190;2023-05-21T02:16:09;100725.73;;;12.55;87.64
41706;BME280;27385;51.096;17.190;2023-05-21T02:18:40;100724.45;;;12.55;87.80
41706;BME280;27385;51.096;17.190;2023-05-21T02:21:11;100723.89;;;12.55;87.82
41706;BME280;27385;51.096;17.190;2023-05-21T02:23:43;100727.13;;;12.53;87.74
41706;BME280;27385;51.096;17.190;2023-05-21T02:26:13;100727.48;;;12.50;87.87
41706;BME280;27385;51.096;17.190;2023-05-21T02:28:45;100731.91;;;12.48;88.01
41706;BME280;27385;51.096;17.190;2023-05-21T02:31:16;100733.96;;;12.46;87.93
41706;BME280;27385;51.096;17.190;2023-05-21T02:33:47;100731.79;;;12.41;88.06
41706;BME280;27385;51.096;17.190;2023-05-21T02:36:18;100728.89;;;12.39;88.07
41706;BME280;27385;51.096;17.190;2023-05-21T02:38:48;100729.61;;;12.36;88.11
41706;BME280;27385;51.096;17.190;2023-05-21T02:41:19;100725.77;;;12.33;88.21
41706;BME280;27385;51.096;17.190;2023-05-21T02:43:54;100728.45;;;12.29;88.14
41706;BME280;27385;51.096;17.190;2023-05-21T02:46:25;100723.49;;;12.26;88.26
41706;BME280;27385;51.096;17.190;2023-05-21T02:48:56;100721.29;;;12.25;88.25
41706;BME280;27385;51.096;17.190;2023-05-21T02:51:27;100718.06;;;12.21;88.10
41706;BME280;27385;51.096;17.190;2023-05-21T02:53:58;100716.64;;;12.16;88.12
41706;BME280;27385;51.096;17.190;2023-05-21T02:56:29;100717.46;;;12.09;88.15
41706;BME280;27385;51.096;17.190;2023-05-21T02:58:59;100718.81;;;12.05;88.27
41706;BME280;27385;51.096;17.190;2023-05-21T03:01:30;100714.23;;;12.02;88.06
41706;BME280;27385;51.096;17.190;2023-05-21T03:04:01;100716.61;;;12.00;88.19
41706;BME280;27385;51.096;17.190;2023-05-21T03:06:31;100712.35;;;11.94;88.55
41706;BME280;27385;51.096;17.190;2023-05-21T03:09:03;100708.83;;;11.88;88.72
41706;BME280;27385;51.096;17.190;2023-05-21T03:11:34;100710.29;;;11.84;88.68
41706;BME280;27385;51.096;17.190;2023-05-21T03:14:05;100707.93;;;11.82;88.85
41706;BME280;27385;51.096;17.190;2023-05-21T03:16:35;100711.66;;;11.80;88.86
41706;BME280;27385;51.096;17.190;2023-05-21T03:19:08;100713.15;;;11.76;88.99
41706;BME280;27385;51.096;17.190;2023-05-21T03:21:39;100712.46;;;11.73;89.03
41706;BME280;27385;51.096;17.190;2023-05-21T03:24:11;100713.81;;;11.72;88.99
41706;BME280;27385;51.096;17.190;2023-05-21T03:26:48;100713.73;;;11.70;89.05
41706;BME280;27385;51.096;17.190;2023-05-21T03:29:19;100714.54;;;11.70;89.15
41706;BME280;27385;51.096;17.190;2023-05-21T03:31:50;100712.63;;;11.73;89.15
41706;BME280;27385;51.096;17.190;2023-05-21T03:34:22;100715.92;;;11.75;89.36
41706;BME280;27385;51.096;17.190;2023-05-21T03:36:53;100716.47;;;11.77;89.40
41706;BME280;27385;51.096;17.190;2023-05-21T03:39:24;100716.63;;;11.79;89.41
41706;BME280;27385;51.096;17.190;2023-05-21T03:41:55;100714.52;;;11.80;89.40
41706;BME280;27385;51.096;17.190;2023-05-21T03:44:26;100710.06;;;11.81;89.44
41706;BME280;27385;51.096;17.190;2023-05-21T03:47:00;100709.48;;;11.80;89.69
41706;BME280;27385;51.096;17.190;2023-05-21T03:49:31;100710.90;;;11.80;89.91
41706;BME280;27385;51.096;17.190;2023-05-21T03:52:02;100711.30;;;11.82;90.05
41706;BME280;27385;51.096;17.190;2023-05-21T03:54:33;100713.09;;;11.83;90.19
41706;BME280;27385;51.096;17.190;2023-05-21T03:57:04;100717.83;;;11.85;90.45
41706;BME280;27385;51.096;17.190;2023-05-21T03:59:35;100716.91;;;11.88;90.50
41706;BME280;27385;51.096;17.190;2023-05-21T04:02:06;100716.70;;;11.90;90.52
41706;BME280;27385;51.096;17.190;2023-05-21T04:04:37;100721.27;;;11.94;90.68
41706;BME280;27385;51.096;17.190;2023-05-21T04:07:08;100722.86;;;11.99;90.68
41706;BME280;27385;51.096;17.190;2023-05-21T04:09:43;100722.23;;;12.06;90.80
41706;BME280;27385;51.096;17.190;2023-05-21T04:12:16;100718.14;;;12.10;90.81
41706;BME280;27385;51.096;17.190;2023-05-21T04:14:48;100714.42;;;12.14;91.10
41706;BME280;27385;51.096;17.190;2023-05-21T04:17:19;100715.08;;;12.20;91.24
41706;BME280;27385;51.096;17.190;2023-05-21T04:19:50;100715.34;;;12.26;91.09
41706;BME280;27385;51.096;17.190;2023-05-21T04:22:21;100714.81;;;12.32;91.22
41706;BME280;27385;51.096;17.190;2023-05-21T04:24:58;100712.63;;;12.38;91.41
41706;BME280;27385;51.096;17.190;2023-05-21T04:27:29;100717.41;;;12.46;91.87
41706;BME280;27385;51.096;17.190;2023-05-21T04:30:00;100719.64;;;12.53;91.86
41706;BME280;27385;51.096;17.190;2023-05-21T04:32:33;100717.70;;;12.63;92.56
41706;BME280;27385;51.096;17.190;2023-05-21T04:35:05;100720.86;;;12.72;92.97
41706;BME280;27385;51.096;17.190;2023-05-21T04:37:35;100716.09;;;12.82;93.27
41706;BME280;27385;51.096;17.190;2023-05-21T04:40:11;100722.82;;;12.94;93.97
41706;BME280;27385;51.096;17.190;2023-05-21T04:42:50;100718.77;;;13.06;94.00
41706;BME280;27385;51.096;17.190;2023-05-21T04:45:21;100717.66;;;13.19;94.12
41706;BME280;27385;51.096;17.190;2023-05-21T04:47:52;100722.98;;;13.33;94.29
41706;BME280;27385;51.096;17.190;2023-05-21T04:50:23;100721.42;;;13.48;94.35
41706;BME280;27385;51.096;17.190;2023-05-21T04:52:54;100715.00;;;13.61;94.40
41706;BME280;27385;51.096;17.190;2023-05-21T04:55:25;100717.73;;;13.76;94.34
41706;BME280;27385;51.096;17.190;2023-05-21T04:57:57;100715.78;;;13.91;94.20
41706;BME280;27385;51.096;17.190;2023-05-21T05:00:28;100717.11;;;14.03;94.00
41706;BME280;27385;51.096;17.190;2023-05-21T05:02:59;100719.45;;;14.18;94.05
41706;BME280;27385;51.096;17.190;2023-05-21T05:05:29;100722.03;;;14.31;93.81
41706;BME280;27385;51.096;17.190;2023-05-21T05:08:00;100721.46;;;14.44;93.75
41706;BME280;27385;51.096;17.190;2023-05-21T05:10:32;100718.23;;;14.57;93.59
41706;BME280;27385;51.096;17.190;2023-05-21T05:13:03;100720.82;;;14.70;93.31
41706;BME280;27385;51.096;17.190;2023-05-21T05:15:33;100721.64;;;14.81;92.98
41706;BME280;27385;51.096;17.190;2023-05-21T05:18:05;100725.80;;;14.93;92.85
41706;BME280;27385;51.096;17.190;2023-05-21T05:20:37;100725.55;;;15.07;92.65
41706;BME280;27385;51.096;17.190;2023-05-21T05:23:08;100724.13;;;15.18;92.34
41706;BME280;27385;51.096;17.190;2023-05-21T05:25:39;100724.93;;;15.30;92.19
41706;BME280;27385;51.096;17.190;2023-05-21T05:28:10;100723.69;;;15.42;92.17
41706;BME280;27385;51.096;17.190;2023-05-21T05:30:40;100721.27;;;15.53;91.91
41706;BME280;27385;51.096;17.190;2023-05-21T05:33:11;100716.64;;;15.64;91.27
41706;BME280;27385;51.096;17.190;2023-05-21T05:35:42;100716.35;;;15.75;90.81
41706;BME280;27385;51.096;17.190;2023-05-21T05:38:13;100714.77;;;15.87;90.57
41706;BME280;27385;51.096;17.190;2023-05-21T05:40:45;100713.04;;;15.99;90.08
41706;BME280;27385;51.096;17.190;2023-05-21T05:43:16;100710.73;;;16.09;90.11
41706;BME280;27385;51.096;17.190;2023-05-21T05:45:47;100705.23;;;16.19;89.99
41706;BME280;27385;51.096;17.190;2023-05-21T05:48:17;100705.17;;;16.30;89.46
41706;BME280;27385;51.096;17.190;2023-05-21T05:50:48;100707.61;;;16.40;89.10
41706;BME280;27385;51.096;17.190;2023-05-21T05:53:23;100708.77;;;16.49;88.95
41706;BME280;27385;51.096;17.190;2023-05-21T05:55:54;100708.86;;;16.60;88.79
41706;BME280;27385;51.096;17.190;2023-05-21T05:58:24;100702.73;;;16.70;88.53
41706;BME280;27385;51.096;17.190;2023-05-21T06:00:55;100699.58;;;16.81;88.10
41706;BME280;27385;51.096;17.190;2023-05-21T06:03:27;100700.96;;;16.90;87.74
41706;BME280;27385;51.096;17.190;2023-05-21T06:05:58;100698.55;;;17.00;87.43
41706;BME280;27385;51.096;17.190;2023-05-21T06:08:28;100697.36;;;17.10;87.31
41706;BME280;27385;51.096;17.190;2023-05-21T06:10:59;100695.05;;;17.20;86.97
41706;BME280;27385;51.096;17.190;2023-05-21T06:13:30;100694.89;;;17.29;86.68
41706;BME280;27385;51.096;17.190;2023-05-21T06:16:01;100694.73;;;17.38;86.61
41706;BME280;27385;51.096;17.190;2023-05-21T06:18:32;100692.50;;;17.46;86.26
41706;BME280;27385;51.096;17.190;2023-05-21T06:21:03;100689.84;;;17.55;86.01
41706;BME280;27385;51.096;17.190;2023-05-21T06:23:34;100694.19;;;17.65;85.72
41706;BME280;27385;51.096;17.190;2023-05-21T06:26:06;100696.73;;;17.75;85.19
41706;BME280;27385;51.096;17.190;2023-05-21T06:28:36;100694.44;;;17.85;84.57
41706;BME280;27385;51.096;17.190;2023-05-21T06:31:07;100694.10;;;17.94;84.41
41706;BME280;27385;51.096;17.190;2023-05-21T06:33:38;100695.24;;;18.03;84.30
41706;BME280;27385;51.096;17.190;2023-05-21T06:36:09;100690.48;;;18.12;83.74
41706;BME280;27385;51.096;17.190;2023-05-21T06:38:39;100688.52;;;18.22;82.97
41706;BME280;27385;51.096;17.190;2023-05-21T06:41:10;100691.15;;;18.32;82.21
41706;BME280;27385;51.096;17.190;2023-05-21T06:43:41;100687.61;;;18.41;82.25
41706;BME280;27385;51.096;17.190;2023-05-21T06:46:12;100691.91;;;18.49;82.34
41706;BME280;27385;51.096;17.190;2023-05-21T06:48:44;100694.05;;;18.59;81.80
41706;BME280;27385;51.096;17.190;2023-05-21T06:51:15;100692.70;;;18.69;81.47
41706;BME280;27385;51.096;17.190;2023-05-21T06:53:46;100689.30;;;18.78;81.32
41706;BME280;27385;51.096;17.190;2023-05-21T06:56:17;100691.74;;;18.87;80.98
41706;BME280;27385;51.096;17.190;2023-05-21T06:58:48;100689.54;;;18.94;80.32
41706;BME280;27385;51.096;17.190;2023-05-21T07:01:19;100691.50;;;19.00;80.32
41706;BME280;27385;51.096;17.190;2023-05-21T07:03:50;100685.46;;;19.07;80.03
41706;BME280;27385;51.096;17.190;2023-05-21T07:06:21;100678.76;;;19.15;79.47
41706;BME280;27385;51.096;17.190;2023-05-21T07:08:52;100678.88;;;19.23;79.04
41706;BME280;27385;51.096;17.190;2023-05-21T07:11:23;100677.43;;;19.29;78.18
41706;BME280;27385;51.096;17.190;2023-05-21T07:13:59;100681.42;;;19.35;77.92
41706;BME280;27385;51.096;17.190;2023-05-21T07:16:30;100682.20;;;19.41;77.93
41706;BME280;27385;51.096;17.190;2023-05-21T07:19:00;100677.30;;;19.47;77.55
41706;BME280;27385;51.096;17.190;2023-05-21T07:21:31;100678.52;;;19.53;77.31
41706;BME280;27385;51.096;17.190;2023-05-21T07:24:02;100676.91;;;19.60;77.07
41706;BME280;27385;51.096;17.190;2023-05-21T07:26:33;100675.89;;;19.68;77.33
41706;BME280;27385;51.096;17.190;2023-05-21T07:29:05;100671.75;;;19.77;76.98
41706;BME280;27385;51.096;17.190;2023-05-21T07:31:36;100667.73;;;19.86;76.66
41706;BME280;27385;51.096;17.190;2023-05-21T07:34:06;100670.17;;;19.97;76.55
41706;BME280;27385;51.096;17.190;2023-05-21T07:36:37;100671.29;;;20.06;75.44
41706;BME280;27385;51.096;17.190;2023-05-21T07:39:08;100672.69;;;20.14;75.70
41706;BME280;27385;51.096;17.190;2023-05-21T07:41:39;100669.41;;;20.27;75.39
41706;BME280;27385;51.096;17.190;2023-05-21T07:44:09;100668.01;;;20.36;74.85
41706;BME280;27385;51.096;17.190;2023-05-21T07:46:40;100668.90;;;20.45;74.41
41706;BME280;27385;51.096;17.190;2023-05-21T07:49:11;100666.33;;;20.54;74.23
41706;BME280;27385;51.096;17.190;2023-05-21T07:51:45;100665.30;;;20.65;74.04
41706;BME280;27385;51.096;17.190;2023-05-21T07:54:15;100661.23;;;20.73;74.10
41706;BME280;27385;51.096;17.190;2023-05-21T07:56:48;100661.63;;;20.82;73.47
41706;BME280;27385;51.096;17.190;2023-05-21T07:59:19;100666.25;;;20.89;73.26
41706;BME280;27385;51.096;17.190;2023-05-21T08:01:50;100664.38;;;20.96;72.99
41706;BME280;27385;51.096;17.190;2023-05-21T08:04:21;100659.64;;;21.03;72.53
41706;BME280;27385;51.096;17.190;2023-05-21T08:06:51;100662.19;;;21.11;72.40
41706;BME280;27385;51.096;17.190;2023-05-21T08:09:23;100662.59;;;21.18;71.96
41706;BME280;27385;51.096;17.190;2023-05-21T08:11:54;100661.90;;;21.25;71.77
41706;BME280;27385;51.096;17.190;2023-05-21T08:14:25;100663.79;;;21.32;71.27
41706;BME280;27385;51.096;17.190;2023-05-21T08:16:55;100656.83;;;21.39;70.99
41706;BME280;27385;51.096;17.190;2023-05-21T08:19:26;100658.95;;;21.47;70.48
41706;BME280;27385;51.096;17.190;2023-05-21T08:21:57;100657.30;;;21.53;69.68
41706;BME280;27385;51.096;17.190;2023-05-21T08:24:28;100655.70;;;21.58;69.60
41706;BME280;27385;51.096;17.190;2023-05-21T08:26:58;100657.26;;;21.63;68.89
41706;BME280;27385;51.096;17.190;2023-05-21T08:29:29;100656.92;;;21.63;68.23
41706;BME280;27385;51.096;17.190;2023-05-21T08:32:01;100658.05;;;21.63;67.62
41706;BME280;27385;51.096;17.190;2023-05-21T08:34:32;100654.48;;;21.65;68.03
41706;BME280;27385;51.096;17.190;2023-05-21T08:37:03;100654.10;;;21.70;68.21
41706;BME280;27385;51.096;17.190;2023-05-21T08:39:34;100657.60;;;21.77;68.01
41706;BME280;27385;51.096;17.190;2023-05-21T08:42:11;100655.27;;;21.84;67.13
41706;BME280;27385;51.096;17.190;2023-05-21T08:44:43;100656.28;;;21.91;67.40
41706;BME280;27385;51.096;17.190;2023-05-21T08:47:24;100652.21;;;21.99;66.98
41706;BME280;27385;51.096;17.190;2023-05-21T08:49:59;100654.04;;;22.08;65.95
41706;BME280;27385;51.096;17.190;2023-05-21T08:52:31;100653.10;;;22.13;66.08
41706;BME280;27385;51.096;17.190;2023-05-21T08:55:05;100655.37;;;22.18;65.41
41706;BME280;27385;51.096;17.190;2023-05-21T08:57:36;100653.80;;;22.23;64.80
41706;BME280;27385;51.096;17.190;2023-05-21T09:00:11;100653.73;;;22.26;64.46
41706;BME280;27385;51.096;17.190;2023-05-21T09:02:42;100651.44;;;22.32;64.66
41706;BME280;27385;51.096;17.190;2023-05-21T09:05:23;100649.11;;;22.36;63.82
41706;BME280;27385;51.096;17.190;2023-05-21T09:08:04;100648.38;;;22.39;63.53
41706;BME280;27385;51.096;17.190;2023-05-21T09:10:40;100648.04;;;22.42;63.97
41706;BME280;27385;51.096;17.190;2023-05-21T09:13:12;100649.92;;;22.48;63.43
41706;BME280;27385;51.096;17.190;2023-05-21T09:15:46;100651.10;;;22.51;62.67
41706;BME280;27385;51.096;17.190;2023-05-21T09:18:17;100650.89;;;22.56;62.48
41706;BME280;27385;51.096;17.190;2023-05-21T09:20:47;100643.81;;;22.61;61.92
41706;BME280;27385;51.096;17.190;2023-05-21T09:23:19;100643.89;;;22.62;62.03
41706;BME280;27385;51.096;17.190;2023-05-21T09:25:50;100647.48;;;22.68;61.85
41706;BME280;27385;51.096;17.190;2023-05-21T09:28:21;100647.71;;;22.74;61.87
41706;BME280;27385;51.096;17.190;2023-05-21T09:30:53;100646.38;;;22.81;61.79
41706;BME280;27385;51.096;17.190;2023-05-21T09:33:27;100648.11;;;22.88;61.54
41706;BME280;27385;51.096;17.190;2023-05-21T09:35:58;100645.48;;;22.96;61.36
41706;BME280;27385;51.096;17.190;2023-05-21T09:38:32;100643.70;;;23.03;60.94
41706;BME280;27385;51.096;17.190;2023-05-21T09:41:07;100640.26;;;23.10;60.29
41706;BME280;27385;51.096;17.190;2023-05-21T09:43:38;100640.91;;;23.15;59.34
41706;BME280;27385;51.096;17.190;2023-05-21T09:46:11;100641.17;;;23.19;59.31
41706;BME280;27385;51.096;17.190;2023-05-21T09:48:46;100641.09;;;23.22;58.82
41706;BME280;27385;51.096;17.190;2023-05-21T09:51:18;100635.84;;;23.26;58.74
41706;BME280;27385;51.096;17.190;2023-05-21T09:53:53;100630.82;;;23.30;58.59
41706;BME280;27385;51.096;17.190;2023-05-21T09:56:27;100634.21;;;23.34;58.23
41706;BME280;27385;51.096;17.190;2023-05-21T09:59:02;100624.29;;;23.37;58.27
41706;BME280;27385;51.096;17.190;2023-05-21T10:01:33;100623.56;;;23.41;57.67
41706;BME280;27385;51.096;17.190;2023-05-21T10:04:07;100620.55;;;23.47;57.66
41706;BME280;27385;51.096;17.190;2023-05-21T10:06:42;100621.84;;;23.53;57.37
41706;BME280;27385;51.096;17.190;2023-05-21T10:09:15;100616.05;;;23.57;56.31
41706;BME280;27385;51.096;17.190;2023-05-21T10:11:50;100614.88;;;23.58;56.07
41706;BME280;27385;51.096;17.190;2023-05-21T10:14:24;100617.65;;;23.63;56.01
41706;BME280;27385;51.096;17.190;2023-05-21T10:16:56;100614.26;;;23.69;55.73
41706;BME280;27385;51.096;17.190;2023-05-21T10:19:28;100613.86;;;23.73;55.11
41706;BME280;27385;51.096;17.190;2023-05-21T10:22:02;100607.83;;;23.75;55.01
41706;BME280;27385;51.096;17.190;2023-05-21T10:24:34;100603.56;;;23.79;55.07
41706;BME280;27385;51.096;17.190;2023-05-21T10:27:07;100602.90;;;23.84;54.46
41706;BME280;27385;51.096;17.190;2023-05-21T10:29:38;100604.94;;;23.92;54.78
41706;BME280;27385;51.096;17.190;2023-05-21T10:32:12;100602.98;;;23.95;53.70
41706;BME280;27385;51.096;17.190;2023-05-21T10:34:44;100601.36;;;23.93;52.55
41706;BME280;27385;51.096;17.190;2023-05-21T10:37:16;100598.73;;;23.94;53.52
41706;BME280;27385;51.096;17.190;2023-05-21T10:39:47;100599.51;;;24.00;53.39
41706;BME280;27385;51.096;17.190;2023-05-21T10:42:23;100597.95;;;24.06;52.94
41706;BME280;27385;51.096;17.190;2023-05-21T10:45:15;100597.12;;;24.13;52.92
41706;BME280;27385;51.096;17.190;2023-05-21T10:48:04;100592.45;;;24.20;52.40
41706;BME280;27385;51.096;17.190;2023-05-21T10:50:52;100589.75;;;24.21;51.81
41706;BME280;27385;51.096;17.190;2023-05-21T10:53:36;100583.98;;;24.19;51.13
41706;BME280;27385;51.096;17.190;2023-05-21T10:56:19;100580.70;;;24.24;51.51
41706;BME280;27385;51.096;17.190;2023-05-21T10:59:08;100582.46;;;24.27;50.27
41706;BME280;27385;51.096;17.190;2023-05-21T11:01:42;100583.89;;;24.28;49.94
41706;BME280;27385;51.096;17.190;2023-05-21T11:04:13;100584.27;;;24.31;49.61
41706;BME280;27385;51.096;17.190;2023-05-21T11:06:48;100583.36;;;24.30;48.30
41706;BME280;27385;51.096;17.190;2023-05-21T11:09:19;100584.00;;;24.28;48.34
41706;BME280;27385;51.096;17.190;2023-05-21T11:11:52;100580.98;;;24.26;47.93
41706;BME280;27385;51.096;17.190;2023-05-21T11:14:31;100575.80;;;24.28;47.64
41706;BME280;27385;51.096;17.190;2023-05-21T11:17:08;100579.59;;;24.29;47.12
41706;BME280;27385;51.096;17.190;2023-05-21T11:19:41;100574.70;;;24.26;46.92
41706;BME280;27385;51.096;17.190;2023-05-21T11:22:24;100573.83;;;24.26;46.56
41706;BME280;27385;51.096;17.190;2023-05-21T11:25:02;100577.60;;;24.28;45.38
41706;BME280;27385;51.096;17.190;2023-05-21T11:27:36;100573.73;;;24.31;46.61
41706;BME280;27385;51.096;17.190;2023-05-21T11:30:09;100574.80;;;24.35;45.97
41706;BME280;27385;51.096;17.190;2023-05-21T11:33:17;100568.46;;;24.37;45.34
41706;BME280;27385;51.096;17.190;2023-05-21T11:35:59;100567.16;;;24.35;45.59
41706;BME280;27385;51.096;17.190;2023-05-21T11:38:31;100564.91;;;24.34;45.06
41706;BME280;27385;51.096;17.190;2023-05-21T11:41:06;100564.03;;;24.35;45.10
41706;BME280;27385;51.096;17.190;2023-05-21T11:43:42;100563.73;;;24.38;44.65
41706;BME280;27385;51.096;17.190;2023-05-21T11:46:21;100557.70;;;24.41;44.71
41706;BME280;27385;51.096;17.190;2023-05-21T11:48:53;100552.78;;;24.41;44.48
41706;BME280;27385;51.096;17.190;2023-05-21T11:51:24;100547.81;;;24.43;44.23
41706;BME280;27385;51.096;17.190;2023-05-21T11:53:56;100552.48;;;24.46;44.07
41706;BME280;27385;51.096;17.190;2023-05-21T11:56:28;100555.77;;;24.50;44.59
41706;BME280;27385;51.096;17.190;2023-05-21T11:59:03;100553.48;;;24.53;43.83
41706;BME280;27385;51.096;17.190;2023-05-21T12:01:34;100546.55;;;24.49;43.67
41706;BME280;27385;51.096;17.190;2023-05-21T12:04:06;100546.09;;;24.48;43.58
41706;BME280;27385;51.096;17.190;2023-05-21T12:06:36;100548.31;;;24.50;43.35
41706;BME280;27385;51.096;17.190;2023-05-21T12:09:11;100545.61;;;24.52;43.03
41706;BME280;27385;51.096;17.190;2023-05-21T12:11:42;100546.86;;;24.54;43.95
41706;BME280;27385;51.096;17.190;2023-05-21T12:14:13;100548.05;;;24.59;43.88
41706;BME280;27385;51.096;17.190;2023-05-21T12:16:45;100541.34;;;24.61;43.74
41706;BME280;27385;51.096;17.190;2023-05-21T12:19:18;100543.70;;;24.63;43.29
41706;BME280;27385;51.096;17.190;2023-05-21T12:21:50;100544.36;;;24.65;43.53
41706;BME280;27385;51.096;17.190;2023-05-21T12:24:21;100542.23;;;24.65;43.49
41706;BME280;27385;51.096;17.190;2023-05-21T12:26:52;100538.16;;;24.68;42.57
41706;BME280;27385;51.096;17.190;2023-05-21T12:29:23;100535.80;;;24.70;43.59
41706;BME280;27385;51.096;17.190;2023-05-21T12:31:57;100539.63;;;24.74;43.76
41706;BME280;27385;51.096;17.190;2023-05-21T12:34:42;100538.98;;;24.78;42.99
41706;BME280;27385;51.096;17.190;2023-05-21T12:37:22;100538.06;;;24.81;43.67
41706;BME280;27385;51.096;17.190;2023-05-21T12:39:58;100538.59;;;24.85;44.20
41706;BME280;27385;51.096;17.190;2023-05-21T12:42:30;100537.56;;;24.88;43.25
41706;BME280;27385;51.096;17.190;2023-05-21T12:45:10;100538.14;;;24.88;43.33
41706;BME280;27385;51.096;17.190;2023-05-21T12:47:41;100534.44;;;24.90;43.39
41706;BME280;27385;51.096;17.190;2023-05-21T12:50:20;100535.91;;;24.94;43.41
41706;BME280;27385;51.096;17.190;2023-05-21T12:52:54;100534.47;;;24.97;43.14
41706;BME280;27385;51.096;17.190;2023-05-21T12:55:28;100532.84;;;24.97;43.10
41706;BME280;27385;51.096;17.190;2023-05-21T13:00:46;100534.58;;;25.09;43.08
41706;BME280;27385;51.096;17.190;2023-05-21T13:03:16;100536.09;;;25.13;43.06
41706;BME280;27385;51.096;17.190;2023-05-21T13:05:49;100526.44;;;25.18;43.05
41706;BME280;27385;51.096;17.190;2023-05-21T13:08:27;100529.20;;;25.25;42.90
41706;BME280;27385;51.096;17.190;2023-05-21T13:10:58;100530.45;;;25.30;42.94